Beauregard Regional Airport De Ridder US
ICAO: KDRI
IATA: DRI
Category: Medium
Scheduled Services: No

Elevation: 202 ft
TransAlt. 18000 ft.

Airport Communications:
POLK APP/DEP:123.7
AWOS 3:118.225
DE RIDDER RDO:122.2
CTAF/UNICOM:122.8

KDRI Zoom In..

If Map Doesn't Load, Click Here

Runways:

(A) RW 14 length 4220 ft width 60 ft
LOC 111.10 / hdg 130

(B) RW 18 length 5495 ft width 100 ft
LOC 111.10 / hdg 175

(C) RW 32 length 4220 ft width 60 ft
LOC 111.10 / hdg 310

(D) RW 36 length 5495 ft width 100 ft
LOC 111.10 / hdg 355

Location; KDRI
Day. 24 / Time. 05.35 Zulu
* Altimeter: 29.92
* Temperature: 25° c. 77°f.
* Wind from: 150° Speed 04 kn.
Dewpoint: 24° c.
Visibility: 10 Statute Miles.
Clouds: Scattered 600 ft.
Clouds: Scattered 1100 ft.
Clouds: Broken 2900 ft.

KDRI 240535Z AUTO 15004KT 10SM SCT006 SCT011 BKN029 25/24 A2992 RMK AO2 T02480240


Wind From 150°
Speed 04 kn.

 
 
jpsmedia.com for Web Design worldairports.se 2018   terms of use